Juan de Fuca Strait - central strait: Past 24 Hour Conditions

 

La Perouse Bank - 46206

10:00 AM PST 26 November 2014Buoy position: 48.83N 126.0W
This table is a summary of hourly weather conditions for the past 24 hours.
Date / Time
(PST)
Wind(knots) Wave height(m) Wave period(s) Pressure(kPa) Air tempC) Water tempC)
26 November 2014
10:00 SSE 16 gust 18 2.0 8.0 101.6 12 12
9:00 S 14 gust 18 2.1 9.0 101.6 12 12
8:00 S 14 gust 18 2.1 7.0 101.7 12 12
7:00 S 14 gust 16 2.1 8.0 101.6 12 12
6:00 SSW 12 gust 14 2.2 7.0 101.7 12 12
5:00 SSW 16 gust 18 2.3 8.0 101.7 13 12
4:00 SW 14 gust 18 2.5 7.0 101.7 12 12
3:00 SW 14 gust 18 2.5 8.0 101.7 13 12
2:00 SW 14 gust 16 2.4 7.0 101.8 13 12
1:00 SW 16 gust 18 2.7 12.0 101.8 13 12
0:00 WSW 18 gust 23 2.3 8.0 101.8 13 12
25 November 2014
23:00 SW 18 gust 21 2.5 8.0 101.8 13 12
22:00 SW 18 gust 19 2.3 11.0 101.8 13 12
21:00 WSW 19 gust 21 1.9 11.0 101.8 13 12
20:00 WSW 14 gust 18 2.0 12.0 101.8 13 12
19:00 ESE 16 gust 19 2.1 12.0 101.8 10 12
18:00 E 18 gust 21 2.1 12.0 101.8 9 12
17:00 E 19 gust 23 2.1 12.0 101.9 9 12
16:00 ESE 19 gust 25 2.0 11.0 101.9 9 12
15:00 E 19 gust 23 2.0 13.0 102.0 9 12
14:00 E 19 gust 23 2.1 13.0 102.0 9 12
13:00 E 18 gust 21 2.2 12.0 102.1 9 12
12:00 ESE 16 gust 19 2.3 13.0 102.1 9 12
11:00 E 14 gust 19 2.5 12.0 102.3 9 12
10:00 SSE 2 gust 4 2.5 13.0 102.3 9 12
 
Map of Pacific - South Coast marine weather areas Tsawwassen Ferry Terminal South Nomad - 46036 Sentry Shoal - 46131 South Brooks - 46132 Halibut Bank - 46146 South Moresby - 46147 South Hecate Strait - 46185 West Sea Otter - 46204 La Perouse Bank - 46206 East Dellwood - 46207 Discovery Island Esquimalt Harbour Kelp Reefs Malahat Race Rocks Lightstation Saturna Island Sheringham Point University of Victoria Victoria Gonzales Victoria Int'l Airport Ballenas Islands Campbell River Airport Comox Airport Entrance Island Fanny Island Nanaimo Airport Port Hardy Airport Sisters Islets Estevan Point Sartine Island Solander Island Tofino Airport Grief Point Powell River Airport Sechelt Cape St.James Bella Bella Airport Bella Coola Airport Cathedral Point Herbert Island Point Atkinson Sand Heads Lightstation Vancouver Harbour Vancouver Int'l Airport West Vancouver Port Alberni Howe Sound - Pam Rocks Squamish Airport